Initiation.

Vivez l'expérience pilote de chasse !

Accompagnés de vrais pilotes de chasse ayant volé sur Rafale et Mirage, venez partager l’expérience unique d’un vol en avion de combat.

Rejoignez notre flottille de chasse sur l’aérodrome de Reims-Prunay où sont basés nos 3 avions à réaction L39 Albatros.

Après l’essai d’équipements de sécurité, vous assisterez à un briefing détaillé de la mission où seront abordés l’enchainement des procédures et des figures de voltige.

J'y Vais !

Quelques informations.

Au cours d’un vol d’environ 30 minutes, vous aurez l’occasion de découvrir la région en basse altitude et à haute vitesse avant d’exécuter des évolutions de combat. Sensations garanties et une immersion inédite dans le monde des pilotes de chasse.

Nos pilotes, tous instructeurs, sont en mesure de vous proposer un vol d’initiation au pilotage pendant lequel vous pourrez découvrir le pilotage de cet avion de chasse.

Autre prestations.

Évènement client.
Formations.
METAR :

LFQA 160900Z AUTO 27005KT 230V310 9999 FEW025 OVC052 18/12 Q1022


vue en direct sur l'aérodrome
mentions légales politique de confidentialité
Cochet Concept
cx